createdAt,value
2022-10-17T00:00:56.053Z,11.67
2022-10-17T00:03:22.989Z,11.57
2022-10-17T00:05:50.027Z,11.63
2022-10-17T00:08:19.249Z,11.53
2022-10-17T00:10:46.498Z,11.59
2022-10-17T00:13:13.494Z,11.78
2022-10-17T00:15:44.931Z,12.04
2022-10-17T00:18:11.926Z,12.15
2022-10-17T00:20:38.878Z,12.28
2022-10-17T00:23:05.785Z,12.07
2022-10-17T00:25:32.812Z,12.24
2022-10-17T00:27:59.755Z,12.26
2022-10-17T00:30:26.732Z,12.26
2022-10-17T00:32:53.704Z,12.11
2022-10-17T00:35:21.123Z,11.95
2022-10-17T00:37:48.795Z,11.89
2022-10-17T00:40:15.865Z,11.90
2022-10-17T00:42:42.849Z,11.81
2022-10-17T00:45:27.949Z,11.65
2022-10-17T00:48:08.547Z,11.84
2022-10-17T00:50:39.306Z,11.78
2022-10-17T00:53:09.481Z,11.48
2022-10-17T00:55:50.073Z,11.39
2022-10-17T00:58:18.290Z,11.23
2022-10-17T01:00:47.503Z,11.14
2022-10-17T01:03:16.491Z,11.25
2022-10-17T01:05:43.622Z,11.02
2022-10-17T01:08:11.510Z,11.05
2022-10-17T01:11:12.543Z,11.11
2022-10-17T01:13:50.316Z,11.11
2022-10-17T01:16:48.830Z,10.99
2022-10-17T01:20:16.309Z,10.61
2022-10-17T01:23:12.593Z,10.52
2022-10-17T01:26:08.671Z,10.87
2022-10-17T01:29:21.175Z,11.14
2022-10-17T01:32:02.602Z,11.21
2022-10-17T01:34:57.377Z,11.32
2022-10-17T01:37:42.708Z,11.44
2022-10-17T01:40:28.231Z,11.55
2022-10-17T01:43:12.590Z,11.50
2022-10-17T01:45:50.670Z,11.54
2022-10-17T01:48:30.006Z,11.57
2022-10-17T01:51:36.070Z,11.50
2022-10-17T01:54:14.891Z,11.20
2022-10-17T01:56:43.543Z,10.84
2022-10-17T01:59:42.703Z,10.97
2022-10-17T02:02:12.018Z,10.65
2022-10-17T02:04:40.467Z,10.60
2022-10-17T02:07:12.424Z,10.89
2022-10-17T02:09:40.492Z,10.97
2022-10-17T02:12:51.914Z,10.91
2022-10-17T02:16:01.527Z,10.48
2022-10-17T02:18:52.605Z,10.45
2022-10-17T02:21:33.814Z,10.44
2022-10-17T02:24:35.763Z,10.19
2022-10-17T02:27:29.800Z,10.18
2022-10-17T02:30:16.553Z,10.47
2022-10-17T02:33:06.850Z,10.38
2022-10-17T02:35:41.281Z,10.37
2022-10-17T02:38:10.978Z,10.33
2022-10-17T02:40:39.553Z,10.32
2022-10-17T02:43:07.781Z,10.64
2022-10-17T02:45:37.922Z,10.71
2022-10-17T02:48:34.691Z,10.77
2022-10-17T02:51:37.305Z,10.81
2022-10-17T02:54:22.347Z,10.89
2022-10-17T02:57:25.594Z,10.87
2022-10-17T02:59:53.607Z,10.73
2022-10-17T03:02:20.542Z,10.88
2022-10-17T03:04:47.553Z,10.91
2022-10-17T03:07:16.027Z,10.50
2022-10-17T03:09:43.639Z,10.46
2022-10-17T03:12:10.651Z,10.38
2022-10-17T03:14:37.724Z,10.22
2022-10-17T03:17:04.911Z,10.40
2022-10-17T03:19:32.154Z,10.58
2022-10-17T03:21:59.120Z,10.54
2022-10-17T03:24:26.110Z,10.40
2022-10-17T03:26:53.430Z,10.23
2022-10-17T03:29:20.582Z,10.24
2022-10-17T03:31:47.933Z,10.13
2022-10-17T03:34:17.660Z,9.87
2022-10-17T03:36:45.639Z,9.62
2022-10-17T03:39:12.736Z,9.61
2022-10-17T03:41:39.730Z,9.59
2022-10-17T03:44:06.751Z,9.65
2022-10-17T03:46:33.850Z,9.78
2022-10-17T03:49:01.125Z,9.78
2022-10-17T03:51:28.457Z,9.63
2022-10-17T03:54:01.997Z,9.49
2022-10-17T03:56:28.969Z,9.34
2022-10-17T03:59:14.182Z,9.35
2022-10-17T04:01:43.393Z,9.29
2022-10-17T04:04:10.808Z,9.33
2022-10-17T04:06:38.767Z,9.63
2022-10-17T04:09:07.546Z,9.64
2022-10-17T04:11:53.547Z,9.68
2022-10-17T04:14:21.728Z,9.72
2022-10-17T04:16:48.735Z,9.71
2022-10-17T04:19:20.099Z,9.84
2022-10-17T04:21:48.267Z,9.53
2022-10-17T04:24:15.753Z,9.35
2022-10-17T04:27:01.189Z,9.62
2022-10-17T04:29:30.621Z,9.39
2022-10-17T04:32:12.310Z,9.49
2022-10-17T04:34:43.645Z,9.66
2022-10-17T04:37:11.050Z,9.80
2022-10-17T04:39:38.153Z,9.69
2022-10-17T04:42:05.471Z,9.89
2022-10-17T04:44:33.652Z,9.91
2022-10-17T04:47:01.140Z,9.81
2022-10-17T04:49:28.313Z,9.94
2022-10-17T04:52:00.093Z,9.94
2022-10-17T04:54:32.390Z,9.87
2022-10-17T04:57:06.752Z,9.59
2022-10-17T04:59:34.429Z,9.56
2022-10-17T05:02:13.217Z,9.28
2022-10-17T05:04:40.312Z,9.31
2022-10-17T05:07:08.799Z,9.19
2022-10-17T05:09:38.310Z,9.06
2022-10-17T05:12:09.445Z,8.96
2022-10-17T05:14:39.374Z,9.25
2022-10-17T05:17:06.352Z,9.34
2022-10-17T05:19:33.316Z,9.68
2022-10-17T05:22:00.347Z,9.32
2022-10-17T05:24:27.335Z,9.12
2022-10-17T05:26:54.315Z,8.93
2022-10-17T05:29:21.530Z,8.88
2022-10-17T05:31:53.519Z,9.05
2022-10-17T05:34:20.594Z,9.09
2022-10-17T05:36:47.610Z,9.10
2022-10-17T05:39:19.713Z,9.02
2022-10-17T05:41:48.553Z,9.12
2022-10-17T05:44:16.626Z,9.04
2022-10-17T05:46:49.620Z,9.05
2022-10-17T05:49:31.939Z,9.00
2022-10-17T05:52:00.499Z,9.39
2022-10-17T05:54:28.700Z,9.45
2022-10-17T05:56:56.612Z,9.37
2022-10-17T05:59:28.284Z,9.19
2022-10-17T06:02:07.154Z,8.92
2022-10-17T06:04:34.786Z,8.91
2022-10-17T06:07:03.058Z,8.99
2022-10-17T06:09:31.866Z,9.02
2022-10-17T06:11:58.894Z,9.12
2022-10-17T06:14:25.931Z,9.19
2022-10-17T06:16:57.311Z,9.32
2022-10-17T06:19:24.295Z,9.42
2022-10-17T06:21:51.494Z,9.48
2022-10-17T06:24:21.957Z,9.52
2022-10-17T06:26:51.718Z,9.48
2022-10-17T06:29:20.848Z,9.46
2022-10-17T06:31:50.829Z,9.82
2022-10-17T06:34:18.947Z,10.26
2022-10-17T06:36:46.768Z,10.64
2022-10-17T06:39:14.423Z,10.77
2022-10-17T06:41:55.546Z,11.10
2022-10-17T06:44:36.329Z,10.88
2022-10-17T06:47:21.803Z,10.38
2022-10-17T06:49:50.605Z,10.53
2022-10-17T06:52:37.833Z,10.74
2022-10-17T06:55:24.402Z,10.80
2022-10-17T06:58:09.218Z,10.82
2022-10-17T07:01:05.109Z,10.96
2022-10-17T07:03:32.652Z,11.39
2022-10-17T07:06:00.952Z,11.56
2022-10-17T07:08:28.171Z,12.05
2022-10-17T07:10:56.226Z,13.08
2022-10-17T07:13:23.369Z,13.83
2022-10-17T07:15:51.251Z,14.55
2022-10-17T07:18:18.724Z,15.43
2022-10-17T07:20:54.404Z,15.61
2022-10-17T07:23:22.759Z,16.27
2022-10-17T07:25:49.973Z,15.83
2022-10-17T07:28:17.846Z,16.86
2022-10-17T07:30:47.514Z,18.08
2022-10-17T07:33:17.452Z,17.96
2022-10-17T07:35:45.034Z,17.45
2022-10-17T07:38:12.072Z,17.06
2022-10-17T07:40:39.112Z,17.64
2022-10-17T07:43:06.279Z,17.92
2022-10-17T07:45:33.214Z,18.56
2022-10-17T07:48:00.210Z,19.42
2022-10-17T07:50:27.190Z,20.58
2022-10-17T07:52:54.074Z,21.48
2022-10-17T07:55:20.988Z,20.42
2022-10-17T07:57:47.895Z,21.38
2022-10-17T08:00:15.134Z,21.37
2022-10-17T08:02:42.871Z,21.80
2022-10-17T08:05:09.970Z,22.14
2022-10-17T08:07:37.066Z,22.42
2022-10-17T08:10:04.698Z,22.35
2022-10-17T08:12:34.258Z,23.69
2022-10-17T08:15:02.062Z,24.32
2022-10-17T08:17:29.169Z,24.42
2022-10-17T08:19:56.121Z,24.08
2022-10-17T08:22:23.057Z,24.60
2022-10-17T08:24:50.022Z,24.71
2022-10-17T08:27:21.522Z,24.51
2022-10-17T08:29:48.810Z,24.68
2022-10-17T08:32:15.770Z,24.52
2022-10-17T08:34:42.775Z,23.74
2022-10-17T08:39:42.289Z,25.95
2022-10-17T08:42:41.431Z,26.65
2022-10-17T08:45:55.005Z,26.86
2022-10-17T08:48:26.172Z,26.46
2022-10-17T08:50:59.380Z,26.00
2022-10-17T08:53:36.892Z,27.15
2022-10-17T08:56:47.989Z,27.81
2022-10-17T08:59:24.780Z,27.64
2022-10-17T09:02:14.559Z,28.00
2022-10-17T09:05:03.320Z,28.04
2022-10-17T09:08:00.603Z,28.54
2022-10-17T09:10:42.809Z,27.78
2022-10-17T09:13:44.202Z,26.42
2022-10-17T09:16:24.435Z,26.31
2022-10-17T09:19:17.475Z,26.32
2022-10-17T09:21:59.889Z,27.80
2022-10-17T09:24:44.498Z,29.10
2022-10-17T09:27:38.805Z,30.86
2022-10-17T09:30:44.025Z,30.08
2022-10-17T09:33:35.084Z,31.34
2022-10-17T09:36:16.200Z,29.91
2022-10-17T09:38:55.990Z,29.74
2022-10-17T09:41:46.863Z,30.13
2022-10-17T09:44:36.382Z,29.84
2022-10-17T09:47:32.140Z,29.38
2022-10-17T09:49:59.040Z,29.68
2022-10-17T09:52:34.010Z,29.72
2022-10-17T09:55:22.570Z,29.59
2022-10-17T09:58:02.784Z,29.56
2022-10-17T10:00:42.343Z,29.22
2022-10-17T10:03:20.274Z,28.41
2022-10-17T10:06:22.330Z,27.65
2022-10-17T10:08:58.678Z,27.03
2022-10-17T10:11:47.569Z,27.78
2022-10-17T10:14:24.224Z,26.45
2022-10-17T10:16:55.578Z,26.37
2022-10-17T10:19:33.776Z,25.79
2022-10-17T10:22:19.042Z,25.70
2022-10-17T10:24:46.537Z,25.89
2022-10-17T10:27:17.280Z,25.46
2022-10-17T10:29:50.709Z,25.66
2022-10-17T10:32:25.508Z,25.88
2022-10-17T10:35:19.419Z,26.51
2022-10-17T10:37:54.050Z,27.29
2022-10-17T10:40:27.367Z,26.27
2022-10-17T10:43:03.968Z,26.32
2022-10-17T10:45:53.391Z,26.10
2022-10-17T10:48:24.735Z,26.16
2022-10-17T10:51:07.743Z,26.11
2022-10-17T10:53:55.880Z,26.69
2022-10-17T10:56:31.099Z,28.38
2022-10-17T10:59:27.999Z,29.68
2022-10-17T11:02:15.769Z,29.29
2022-10-17T11:05:24.186Z,28.30
2022-10-17T11:07:52.418Z,27.87
2022-10-17T11:10:33.794Z,27.71
2022-10-17T11:13:20.112Z,28.30
2022-10-17T11:16:30.867Z,27.29
2022-10-17T11:19:20.993Z,25.74
2022-10-17T11:22:11.196Z,26.14
2022-10-17T11:24:57.164Z,27.87
2022-10-17T11:27:29.659Z,29.04
2022-10-17T11:29:58.120Z,30.26
2022-10-17T11:32:36.644Z,29.17
2022-10-17T11:35:34.346Z,28.16
2022-10-17T11:38:30.718Z,30.21
2022-10-17T11:41:00.242Z,28.68
2022-10-17T11:44:04.052Z,29.88
2022-10-17T11:46:35.928Z,30.64
2022-10-17T11:49:20.407Z,31.56
2022-10-17T11:52:37.793Z,30.80
2022-10-17T11:55:28.310Z,30.43
2022-10-17T11:58:33.326Z,30.80
2022-10-17T12:01:15.227Z,30.19
2022-10-17T12:04:03.850Z,30.37
2022-10-17T12:07:33.392Z,30.89
2022-10-17T12:10:23.966Z,30.81
2022-10-17T12:12:51.113Z,30.77
2022-10-17T12:15:23.417Z,30.79
2022-10-17T12:18:04.011Z,31.02
2022-10-17T12:20:38.506Z,31.16
2022-10-17T12:23:11.646Z,32.02
2022-10-17T12:25:57.114Z,32.07
2022-10-17T12:28:39.526Z,31.13
2022-10-17T12:31:13.014Z,31.69
2022-10-17T12:33:59.762Z,30.32
2022-10-17T12:36:26.577Z,31.74
2022-10-17T12:39:02.583Z,32.26
2022-10-17T12:41:38.446Z,32.52
2022-10-17T12:44:14.706Z,32.97
2022-10-17T12:46:51.299Z,33.25
2022-10-17T12:49:46.615Z,34.14
2022-10-17T12:52:31.367Z,34.63
2022-10-17T12:55:11.036Z,34.51
2022-10-17T12:57:56.766Z,34.78
2022-10-17T13:01:19.133Z,34.67
2022-10-17T13:03:48.652Z,34.98
2022-10-17T13:06:27.335Z,34.61
2022-10-17T13:09:10.607Z,34.86
2022-10-17T13:11:39.540Z,34.78
2022-10-17T13:14:14.735Z,34.72
2022-10-17T13:16:59.356Z,34.68
2022-10-17T13:19:50.441Z,34.81
2022-10-17T13:22:28.539Z,34.56
2022-10-17T13:25:10.077Z,34.42
2022-10-17T13:27:37.587Z,34.35
2022-10-17T13:30:32.149Z,33.66
2022-10-17T13:33:00.882Z,32.96
2022-10-17T13:36:00.091Z,32.10
2022-10-17T13:38:29.067Z,30.87
2022-10-17T13:41:05.897Z,30.26
2022-10-17T13:43:38.838Z,28.78
2022-10-17T13:46:32.479Z,27.96
2022-10-17T13:48:53.830Z,27.64
2022-10-17T13:51:20.878Z,27.32
2022-10-17T13:53:47.836Z,26.98
2022-10-17T13:56:28.271Z,26.84
2022-10-17T13:59:01.511Z,26.73
2022-10-17T14:01:29.769Z,26.38
2022-10-17T14:04:08.416Z,26.12
2022-10-17T14:06:49.314Z,26.10
2022-10-17T14:09:25.411Z,25.69
2022-10-17T14:12:04.231Z,25.60
2022-10-17T14:14:46.056Z,25.54
2022-10-17T14:17:29.280Z,25.34
2022-10-17T14:23:10.795Z,25.05
2022-10-17T14:25:40.414Z,25.06
2022-10-17T14:28:14.723Z,25.02
2022-10-17T14:30:56.750Z,24.97
2022-10-17T14:33:29.522Z,24.73
2022-10-17T14:36:00.284Z,24.53
2022-10-17T14:38:29.175Z,24.34
2022-10-17T14:44:16.255Z,24.17
2022-10-17T14:46:50.467Z,24.06
2022-10-17T14:49:25.361Z,23.97
2022-10-17T14:52:28.853Z,23.91
2022-10-17T14:54:58.062Z,23.76
2022-10-17T14:57:33.791Z,23.76
2022-10-17T15:00:00.759Z,23.70
2022-10-17T15:02:30.504Z,23.68
2022-10-17T15:04:57.715Z,23.67
2022-10-17T15:07:24.710Z,23.70
2022-10-17T15:09:53.904Z,23.52
2022-10-17T15:12:25.234Z,23.46
2022-10-17T15:14:53.780Z,23.38
2022-10-17T15:17:28.282Z,23.26
2022-10-17T15:19:55.911Z,23.15
2022-10-17T15:22:23.863Z,23.00
2022-10-17T15:24:50.968Z,22.85
2022-10-17T15:27:26.633Z,22.76
2022-10-17T15:29:53.579Z,22.92
2022-10-17T15:32:20.504Z,22.85
2022-10-17T15:34:47.545Z,22.81
2022-10-17T15:37:34.566Z,22.74
2022-10-17T15:40:01.576Z,22.64
2022-10-17T15:42:30.310Z,22.49
2022-10-17T15:44:58.279Z,22.31
2022-10-17T15:47:36.042Z,22.21
2022-10-17T15:50:04.856Z,22.09
2022-10-17T15:52:32.219Z,22.13
2022-10-17T15:55:01.035Z,22.27
2022-10-17T15:57:40.509Z,22.04
2022-10-17T16:00:16.664Z,21.69
2022-10-17T16:02:44.714Z,21.33
2022-10-17T16:05:25.573Z,21.21
2022-10-17T16:07:53.751Z,21.06
2022-10-17T16:10:22.129Z,21.06
2022-10-17T16:12:50.208Z,20.87
2022-10-17T16:15:25.029Z,20.81
2022-10-17T16:17:54.672Z,20.81
2022-10-17T16:20:23.535Z,20.61
2022-10-17T16:22:50.951Z,20.34
2022-10-17T16:25:24.913Z,20.21
2022-10-17T16:27:55.005Z,20.19
2022-10-17T16:30:24.817Z,20.07
2022-10-17T16:32:53.798Z,19.86
2022-10-17T16:35:33.207Z,19.96
2022-10-17T16:38:05.270Z,19.55
2022-10-17T16:40:32.313Z,19.18
2022-10-17T16:42:59.322Z,19.08
2022-10-17T16:45:26.299Z,19.26
2022-10-17T16:47:53.523Z,19.17
2022-10-17T16:50:20.743Z,18.83
2022-10-17T16:52:47.940Z,18.52
2022-10-17T16:55:18.698Z,18.39
2022-10-17T16:57:48.452Z,18.27
2022-10-17T17:00:16.544Z,18.04
2022-10-17T17:02:43.941Z,17.91
2022-10-17T17:05:11.475Z,17.85
2022-10-17T17:07:38.686Z,17.67
2022-10-17T17:10:06.575Z,17.54
2022-10-17T17:12:35.358Z,17.25
2022-10-17T17:15:03.159Z,17.22
2022-10-17T17:17:48.800Z,17.20
2022-10-17T17:20:17.998Z,17.13
2022-10-17T17:22:44.997Z,17.08
2022-10-17T17:25:11.928Z,17.01
2022-10-17T17:27:39.577Z,17.00
2022-10-17T17:30:07.864Z,17.03
2022-10-17T17:32:34.937Z,17.20
2022-10-17T17:35:02.075Z,17.36
2022-10-17T17:37:29.447Z,17.20
2022-10-17T17:39:56.630Z,17.21
2022-10-17T17:42:23.605Z,17.21
2022-10-17T17:44:50.667Z,17.06
2022-10-17T17:47:17.626Z,16.81
2022-10-17T17:49:44.563Z,16.70
2022-10-17T17:52:11.468Z,16.48
2022-10-17T17:54:40.784Z,16.57
2022-10-17T17:57:08.183Z,16.49
2022-10-17T17:59:35.310Z,16.53
2022-10-17T18:02:02.886Z,16.32
2022-10-17T18:04:29.887Z,16.11
2022-10-17T18:06:56.787Z,15.88
2022-10-17T18:09:23.934Z,15.70
2022-10-17T18:11:50.887Z,15.63
2022-10-17T18:14:19.134Z,15.61
2022-10-17T18:16:46.198Z,15.58
2022-10-17T18:19:13.262Z,15.56
2022-10-17T18:21:40.148Z,15.51
2022-10-17T18:24:07.829Z,15.50
2022-10-17T18:26:35.540Z,15.45
2022-10-17T18:29:03.708Z,15.77
2022-10-17T18:31:35.242Z,15.81
2022-10-17T18:34:03.497Z,15.72
2022-10-17T18:36:32.166Z,15.64
2022-10-17T18:39:01.341Z,15.43
2022-10-17T18:41:28.701Z,15.52
2022-10-17T18:43:56.674Z,15.44
2022-10-17T18:46:30.549Z,15.26
2022-10-17T18:48:58.154Z,14.95
2022-10-17T18:51:26.184Z,14.70
2022-10-17T18:53:56.313Z,14.55
2022-10-17T18:56:24.082Z,14.70
2022-10-17T18:58:51.943Z,14.66
2022-10-17T19:01:26.571Z,14.63
2022-10-17T19:03:58.290Z,14.46
2022-10-17T19:06:32.112Z,14.43
2022-10-17T19:09:01.380Z,14.38
2022-10-17T19:11:30.450Z,14.27
2022-10-17T19:14:00.722Z,14.21
2022-10-17T19:16:34.743Z,14.19
2022-10-17T19:19:21.172Z,14.40
2022-10-17T19:21:48.553Z,14.59
2022-10-17T19:24:23.494Z,14.74
2022-10-17T19:26:55.934Z,14.85
2022-10-17T19:29:26.841Z,14.74
2022-10-17T19:34:27.912Z,14.24
2022-10-17T19:36:55.854Z,14.22
2022-10-17T19:39:25.065Z,14.24
2022-10-17T19:41:52.290Z,14.00
2022-10-17T19:44:19.907Z,13.80
2022-10-17T19:46:49.274Z,13.83
2022-10-17T19:49:16.976Z,13.76
2022-10-17T19:51:44.980Z,13.67
2022-10-17T19:54:12.658Z,13.67
2022-10-17T19:56:40.489Z,13.83
2022-10-17T19:59:08.516Z,13.95
2022-10-17T20:01:40.625Z,14.12
2022-10-17T20:04:10.703Z,13.99
2022-10-17T20:06:38.932Z,13.79
2022-10-17T20:09:08.793Z,13.63
2022-10-17T20:11:38.104Z,13.62
2022-10-17T20:14:05.886Z,13.51
2022-10-17T20:16:35.599Z,13.41
2022-10-17T20:19:07.408Z,13.28
2022-10-17T20:21:36.563Z,13.20
2022-10-17T20:24:06.684Z,13.12
2022-10-17T20:26:39.383Z,13.13
2022-10-17T20:29:16.084Z,13.14
2022-10-17T20:31:45.409Z,13.18
2022-10-17T20:34:16.133Z,13.13
2022-10-17T20:36:43.466Z,13.06
2022-10-17T20:39:13.029Z,13.06
2022-10-17T20:41:41.000Z,13.31
2022-10-17T20:44:08.212Z,13.32
2022-10-17T20:46:38.325Z,13.46
2022-10-17T20:49:07.860Z,13.57
2022-10-17T20:51:35.853Z,13.75
2022-10-17T20:54:03.809Z,13.66
2022-10-17T20:56:32.867Z,13.63
2022-10-17T20:59:10.356Z,13.61
2022-10-17T21:01:37.362Z,13.64
2022-10-17T21:06:53.327Z,13.38
2022-10-17T21:09:21.786Z,13.43
2022-10-17T21:11:51.445Z,13.26
2022-10-17T21:14:19.000Z,13.16
2022-10-17T21:16:45.936Z,13.06
2022-10-17T21:19:13.860Z,13.24
2022-10-17T21:21:44.578Z,13.32
2022-10-17T21:24:16.821Z,13.07
2022-10-17T21:26:45.557Z,13.34
2022-10-17T21:29:13.708Z,13.31
2022-10-17T21:31:43.441Z,13.17
2022-10-17T21:34:22.117Z,13.24
2022-10-17T21:36:49.596Z,13.31
2022-10-17T21:39:17.249Z,13.24
2022-10-17T21:41:44.987Z,13.19
2022-10-17T21:44:17.483Z,13.21
2022-10-17T21:46:45.552Z,13.24
2022-10-17T21:49:15.041Z,13.21
2022-10-17T21:51:42.965Z,13.03
2022-10-17T21:54:10.385Z,12.88
2022-10-17T21:56:37.828Z,13.15
2022-10-17T21:59:06.151Z,13.09
2022-10-17T22:01:38.953Z,12.98
2022-10-17T22:04:09.960Z,12.96
2022-10-17T22:06:40.504Z,12.99
2022-10-17T22:09:26.119Z,12.99
2022-10-17T22:11:55.678Z,12.95
2022-10-17T22:14:24.857Z,12.84
2022-10-17T22:16:52.439Z,12.88
2022-10-17T22:19:22.421Z,12.87
2022-10-17T22:21:50.440Z,12.68
2022-10-17T22:24:19.404Z,12.35
2022-10-17T22:26:47.327Z,12.34
2022-10-17T22:29:14.639Z,12.21
2022-10-17T22:31:42.190Z,12.09
2022-10-17T22:34:12.119Z,11.97
2022-10-17T22:36:39.246Z,12.14
2022-10-17T22:39:06.315Z,12.30
2022-10-17T22:41:33.616Z,12.39
2022-10-17T22:44:01.323Z,12.52
2022-10-17T22:46:28.913Z,12.45
2022-10-17T22:48:56.269Z,12.29
2022-10-17T22:53:55.503Z,12.35
2022-10-17T22:56:23.595Z,12.55
2022-10-17T22:58:51.603Z,12.42
2022-10-17T23:01:23.700Z,12.22
2022-10-17T23:03:52.585Z,11.93
2022-10-17T23:06:20.532Z,11.77
2022-10-17T23:08:48.096Z,11.93
2022-10-17T23:11:15.379Z,12.07
2022-10-17T23:13:42.303Z,12.19
2022-10-17T23:16:09.770Z,12.03
2022-10-17T23:18:38.041Z,11.94
2022-10-17T23:21:05.648Z,11.77
2022-10-17T23:23:32.586Z,11.66
2022-10-17T23:26:11.910Z,11.77
2022-10-17T23:28:39.809Z,12.04
2022-10-17T23:31:25.119Z,11.82
2022-10-17T23:33:52.133Z,11.96
2022-10-17T23:36:21.738Z,11.82
2022-10-17T23:38:49.145Z,11.67
2022-10-17T23:41:17.130Z,11.76
2022-10-17T23:43:44.377Z,11.66
2022-10-17T23:46:11.571Z,11.45
2022-10-17T23:48:39.663Z,11.27
2022-10-17T23:51:08.070Z,11.19
2022-10-17T23:53:36.490Z,11.18
2022-10-17T23:56:04.767Z,11.09
2022-10-17T23:58:31.800Z,11.14
